Latest Weather Observations for Cape Jaffa

IDS60801

Issued at 11:01 pm CDT Monday 5 December 2016 (issued every 30 minutes, with the page automatically refreshed every 10 minutes)

About weather observations | Map of weather stations | Latest weather observations for SA | Other Formats
Station Details ID: 026095 Name: THE LIMESTONE Lat: -36.97 Lon: 139.72 Height: 17.0 m
Data from the previous 72 hours. | See also: Recent months at Cape Jaffa
Date/Time
CDT
Temp
°C
App
Temp
°C
Dew
Point
°C
Rel
Hum
%
Delta-T
°C
Wind Press
QNH
hPa
Press
MSL
hPa
Rain since
9am
mm
Dir  Spd
km/h
Gust
km/h
Spd
kts
Gust
kts
05/11:00pm 12.5 8.3 5.9 64 3.1 SSW 17 20 9 11 1014.8 1014.7 0.0
05/10:30pm 12.6 8.6 6.6 67 2.9 SSW 17 20 9 11 1015.1 1015.0 0.0
05/10:00pm 12.5 8.8 6.3 66 2.9 SSW 15 20 8 11 1014.9 1014.8 0.0
05/09:30pm 12.6 8.6 6.6 67 2.9 SSW 17 20 9 11 1014.8 1014.7 0.0
05/09:00pm 12.9 9.3 6.7 66 3.0 SSW 15 20 8 11 1014.7 1014.6 0.0
05/08:30pm 13.4 9.0 6.7 64 3.2 SSW 19 24 10 13 1013.9 1013.8 0.0
05/08:00pm 14.3 9.4 7.1 62 3.5 SSW 22 26 12 14 1014.3 1014.2 0.0
05/07:30pm 14.8 10.4 7.6 62 3.6 SSW 20 26 11 14 1014.8 1014.7 0.0
05/07:00pm 15.6 11.4 7.6 59 4.0 SSW 19 24 10 13 1014.4 1014.3 0.0
05/06:30pm 15.6 10.9 7.6 59 4.0 SSW 22 26 12 14 1014.1 1014.0 0.0
05/06:00pm 16.9 12.3 8.1 56 4.5 SSW 22 32 12 17 1013.9 1013.8 0.0
05/05:30pm 15.4 10.9 8.4 63 3.5 SSW 22 28 12 15 1014.1 1014.0 0.0
05/05:00pm 15.6 11.1 8.6 63 3.6 SSW 22 28 12 15 1014.6 1014.5 0.0
05/04:30pm 16.3 11.8 8.5 60 4.0 SSW 22 28 12 15 1014.6 1014.5 0.0
05/04:00pm 16.7 12.4 7.9 56 4.4 SW 20 26 11 14 1015.0 1014.9 0.0
05/03:30pm 16.8 12.4 9.0 60 4.0 SW 22 32 12 17 1014.5 1014.4 0.0
05/03:00pm 18.0 13.3 9.1 56 4.6 SW 24 32 13 17 1014.2 1014.1 0.0
05/02:30pm 17.5 12.5 8.1 54 4.8 SSW 24 33 13 18 1013.8 1013.7 0.0
05/02:00pm 17.1 12.0 7.5 53 4.8 SSW 24 32 13 17 1013.8 1013.7 0.0
05/01:30pm 17.1 12.5 8.0 55 4.6 SSW 22 30 12 16 1014.2 1014.1 0.0
05/01:00pm 17.3 12.9 9.0 58 4.3 SSW 22 30 12 16 1014.5 1014.4 0.0
05/12:30pm 17.6 13.2 7.4 51 5.1 SSW 20 28 11 15 1014.6 1014.5 0.0
05/12:00pm 18.5 14.0 8.5 52 5.2 SSW 22 28 12 15 1014.3 1014.2 0.0
05/11:30am 17.9 13.2 7.9 52 5.1 SSW 22 32 12 17 1014.3 1014.2 0.0
05/11:00am 17.9 12.4 7.6 51 5.2 SSW 26 32 14 17 1014.3 1014.2 0.0
05/10:30am 17.1 11.1 6.9 51 5.1 SSW 28 37 15 20 1014.1 1014.0 0.0
05/10:00am 17.2 11.8 8.1 55 4.6 SSW 26 35 14 19 1013.9 1013.8 0.0
05/09:30am 17.1 10.4 7.2 52 4.9 SW 32 39 17 21 1013.9 1013.8 0.0
05/09:00am 15.6 9.8 8.1 61 3.8 SW 28 35 15 19 1013.7 1013.6 0.2
05/08:30am 16.8 11.3 7.4 54 4.7 SW 26 35 14 19 1013.3 1013.2 0.2
05/08:00am 15.9 10.2 8.2 60 3.9 SW 28 37 15 20 1013.0 1012.9 0.2
05/07:30am 15.4 10.2 7.4 59 4.0 SW 24 33 13 18 1012.6 1012.5 0.2
05/07:00am 14.4 8.4 7.2 62 3.5 SW 28 35 15 19 1012.4 1012.3 0.2
05/06:30am 14.0 8.8 7.1 63 3.4 SW 24 30 13 16 1012.3 1012.2 0.2
05/06:00am 14.4 9.4 8.1 66 3.1 SW 24 33 13 18 1011.8 1011.7 0.2
05/05:30am 14.3 8.6 8.3 67 3.0 WSW 28 37 15 20 1011.2 1011.1 0.2
05/05:00am 14.4 9.0 9.4 72 2.6 SW 28 35 15 19 1010.5 1010.4 0.2
05/04:30am 14.3 9.7 9.5 73 2.5 WSW 24 32 13 17 1009.9 1009.8 0.2
05/04:00am 14.8 11.1 10.0 73 2.5 WSW 20 26 11 14 1010.0 1009.9 0.2
05/03:30am 15.2 10.4 10.4 73 2.5 WSW 26 32 14 17 1009.6 1009.5 0.2
05/03:00am 14.7 8.9 9.5 71 2.7 WSW 30 39 16 21 1009.5 1009.4 0.2
05/02:30am 14.6 10.1 10.0 74 2.4 WSW 24 33 13 18 1009.2 1009.1 0.2
05/02:00am 14.6 8.8 9.4 71 2.7 WSW 30 43 16 23 1008.9 1008.8 0.2
05/01:30am 14.8 9.4 10.8 77 2.1 WSW 30 39 16 21 1008.7 1008.6 0.2
05/01:00am 15.1 10.1 12.2 83 1.6 WSW 30 39 16 21 1008.1 1008.0 0.2
05/12:30am 15.7 10.2 12.5 81 1.8 WSW 33 44 18 24 1007.9 1007.8 0.2
05/12:00am 15.8 10.6 12.7 82 1.7 WSW 32 44 17 24 1007.7 1007.6 0.2
 
Date/Time
CDT
Temp
°C
App
Temp
°C
Dew
Point
°C
Rel
Hum
%
Delta-T
°C
Wind Press
QNH
hPa
Press
MSL
hPa
Rain since
9am
mm
Dir  Spd
km/h
Gust
km/h
Spd
kts
Gust
kts
04/11:30pm 16.1 11.9 13.4 84 1.5 WSW 28 37 15 20 1007.2 1007.1 0.2
04/11:00pm 16.6 11.6 14.1 85 1.4 WSW 33 44 18 24 1006.5 1006.4 0.2
04/10:30pm 17.1 11.9 14.4 84 1.6 WSW 35 46 19 25 1005.9 1005.8 0.2
04/10:00pm 17.9 13.1 14.6 81 1.9 W 33 46 18 25 1005.4 1005.3 0.2
04/09:56pm 18.1 13.3 14.6 80 2.0 W 33 46 18 25 1005.4 1005.3 0.2
04/09:30pm 19.4 17.4 15.5 78 2.3 WNW 20 28 11 15 1004.7 1004.6 0.2
04/09:00pm 20.2 15.9 16.0 77 2.5 WNW 33 48 18 26 1004.2 1004.2 0.2
04/08:43pm 21.8 17.9 16.5 72 3.2 NNW 32 54 17 29 1004.0 1004.0 0.2
04/08:30pm 21.2 18.8 16.4 74 2.9 NNW 24 37 13 20 1002.8 1002.8 0.2
04/08:00pm 21.4 19.1 16.6 74 2.9 N 24 32 13 17 1002.4 1002.4 0.2
04/07:30pm 22.4 19.4 16.9 71 3.4 N 28 35 15 19 1001.7 1001.7 0.2
04/07:00pm 23.1 20.1 16.9 68 3.8 N 28 37 15 20 1001.5 1001.5 0.2
04/06:30pm 24.0 20.6 16.8 64 4.4 N 30 39 16 21 1001.6 1001.6 0.2
04/06:00pm 24.7 20.9 17.2 63 4.7 NNE 33 43 18 23 1001.3 1001.3 0.2
04/05:30pm 24.3 20.7 17.1 64 4.5 N 32 43 17 23 1001.4 1001.4 0.2
04/05:00pm 24.1 20.6 17.4 66 4.2 NNE 32 43 17 23 1001.7 1001.7 0.2
04/04:30pm 24.2 20.0 17.2 65 4.4 NNE 35 50 19 27 1002.1 1002.1 0.2
04/04:00pm 23.4 20.6 17.4 69 3.7 N 28 37 15 20 1002.8 1002.8 0.2
04/03:30pm 23.4 20.0 18.1 72 3.3 NNE 33 43 18 23 1003.3 1003.3 0.2
04/03:00pm 20.8 16.9 17.8 83 1.9 N 35 52 19 28 1004.1 1004.1 0.2
04/02:30pm 19.9 15.4 17.3 85 1.6 N 37 46 20 25 1005.0 1004.9 0.0
04/02:00pm 19.2 15.2 16.8 86 1.4 N 33 44 18 24 1006.0 1005.9 0.0
04/01:30pm 20.6 14.1 16.6 78 2.4 N 46 61 25 33 1005.4 1005.3 0.0
04/01:00pm 21.7 16.2 14.8 65 4.1 N 37 57 20 31 1005.7 1005.6 0.0
04/12:59pm 21.7 16.2 14.6 64 4.2 N 37 57 20 31 1005.7 1005.6 0.0
04/12:30pm 22.5 16.7 13.8 58 5.1 N 37 46 20 25 1005.8 1005.7 0.0
04/12:00pm 22.2 17.3 12.7 55 5.4 N 30 39 16 21 1005.7 1005.6 0.0
04/11:30am 22.5 17.8 11.9 51 6.0 N 28 37 15 20 1005.6 1005.5 0.0
04/11:00am 21.3 16.3 10.8 51 5.8 N 28 43 15 23 1006.1 1006.0 0.0
04/10:30am 20.8 16.5 10.6 52 5.6 N 24 32 13 17 1006.5 1006.4 0.0
04/10:00am 22.4 17.8 9.6 44 6.9 N 24 35 13 19 1006.4 1006.3 0.0
04/09:30am 22.2 18.6 8.3 41 7.3 NE 17 26 9 14 1006.0 1005.9 0.0
04/09:00am 19.3 17.0 10.3 56 4.9 ENE 13 17 7 9 1006.2 1006.1 0.0
04/08:30am 17.6 14.9 10.5 63 3.8 NE 15 17 8 9 1006.6 1006.5 0.0
04/08:00am 16.4 13.5 9.8 65 3.5 ENE 15 20 8 11 1006.7 1006.6 0.0
04/07:30am 14.2 11.7 9.8 75 2.3 ENE 13 19 7 10 1006.6 1006.5 0.0
04/07:00am 12.7 9.7 9.3 80 1.7 ENE 15 19 8 10 1007.1 1007.0 0.0
04/06:30am 12.1 9.1 9.3 83 1.4 ENE 15 19 8 10 1007.4 1007.3 0.0
04/06:00am 11.6 8.9 9.0 84 1.3 E 13 17 7 9 1007.5 1007.4 0.0
04/05:30am 11.2 8.4 8.6 84 1.3 ESE 13 17 7 9 1007.4 1007.3 0.0
04/05:00am 11.1 7.9 8.5 84 1.3 E 15 19 8 10 1007.7 1007.6 0.0
04/04:30am 11.3 8.1 8.5 83 1.4 E 15 17 8 9 1007.7 1007.6 0.0
04/04:00am 11.3 8.4 8.3 82 1.5 ESE 13 17 7 9 1008.1 1008.0 0.0
04/03:30am 11.3 8.4 8.2 81 1.5 E 13 17 7 9 1008.6 1008.5 0.0
04/03:00am 11.7 8.9 8.6 81 1.5 E 13 19 7 10 1009.0 1008.9 0.0
04/02:30am 11.7 9.2 8.4 80 1.6 ESE 11 15 6 8 1009.1 1009.0 0.0
04/02:00am 11.5 9.0 8.2 80 1.6 ESE 11 13 6 7 1009.3 1009.2 0.0
04/01:30am 11.7 9.2 8.0 78 1.8 ESE 11 15 6 8 1009.7 1009.6 0.0
04/01:00am 11.9 9.4 8.0 77 1.9 ESE 11 15 6 8 1010.1 1010.0 0.0
04/12:30am 11.3 9.1 7.8 79 1.7 SE 9 11 5 6 1010.6 1010.5 0.0
04/12:00am 11.4 9.2 7.7 78 1.8 SSE 9 13 5 7 1011.2 1011.1 0.0
 
Date/Time
CDT
Temp
°C
App
Temp
°C
Dew
Point
°C
Rel
Hum
%
Delta-T
°C
Wind Press
QNH
hPa
Press
MSL
hPa
Rain since
9am
mm
Dir  Spd
km/h
Gust
km/h
Spd
kts
Gust
kts
03/11:30pm 11.9 9.4 8.2 78 1.8 SE 11 15 6 8 1011.3 1011.2 0.0
03/11:00pm 12.4 9.9 8.1 75 2.1 SSE 11 15 6 8 1011.9 1011.8 0.0
03/10:30pm 12.9 10.2 8.8 76 2.1 SSE 13 19 7 10 1011.9 1011.8 0.0
03/10:00pm 13.5 10.5 9.2 75 2.2 SSE 15 19 8 10 1012.3 1012.2 0.0
03/09:30pm 14.1 10.8 9.7 75 2.3 SSE 17 24 9 13 1012.2 1012.1 0.0
03/09:00pm 14.1 11.3 9.9 76 2.2 SSE 15 22 8 12 1012.0 1011.9 0.0
03/08:30pm 15.0 11.6 10.6 75 2.3 SSE 19 24 10 13 1012.0 1011.9 0.0
03/08:00pm 15.8 12.3 10.3 70 2.9 S 19 24 10 13 1012.1 1012.0 0.0
03/07:30pm 16.8 13.0 11.3 70 3.0 S 22 30 12 16 1011.9 1011.8 0.0
03/07:00pm 17.2 12.6 11.2 68 3.2 S 26 33 14 18 1011.9 1011.8 0.0
03/06:30pm 18.4 14.3 11.5 64 3.8 S 24 30 13 16 1011.7 1011.6 0.0
03/06:00pm 18.4 13.7 10.5 60 4.2 S 26 33 14 18 1011.9 1011.8 0.0
03/05:30pm 18.1 12.5 10.0 59 4.3 SSW 30 35 16 19 1012.1 1012.0 0.0
03/05:00pm 18.1 12.4 9.7 58 4.4 SSW 30 39 16 21 1012.8 1012.7 0.0
03/04:30pm 18.2 12.3 9.0 55 4.8 SSW 30 35 16 19 1013.1 1013.0 0.0
03/04:00pm 18.4 12.6 9.5 56 4.7 SSW 30 37 16 20 1013.1 1013.0 0.0
03/03:30pm 18.3 12.5 9.4 56 4.7 SSW 30 37 16 20 1013.5 1013.4 0.0
03/03:00pm 19.0 13.9 9.2 53 5.2 SSW 26 33 14 18 1013.6 1013.5 0.0
03/02:30pm 18.6 13.3 8.6 52 5.2 SSW 26 32 14 17 1013.8 1013.7 0.0
03/02:00pm 18.8 14.2 9.6 55 4.9 SSW 24 32 13 17 1014.1 1014.0 0.0
03/01:30pm 18.7 14.9 9.8 56 4.7 SW 20 26 11 14 1014.6 1014.5 0.0
03/01:00pm 17.9 14.0 8.5 54 4.8 SW 19 24 10 13 1014.9 1014.8 0.0
03/12:30pm 18.4 14.8 8.4 52 5.2 SW 17 22 9 12 1014.8 1014.7 0.0
03/12:00pm 18.6 15.5 7.1 47 5.8 WSW 13 22 7 12 1014.9 1014.8 0.0
03/11:30am 19.2 16.4 7.0 45 6.1 N 11 19 6 10 1015.2 1015.1 0.0
03/11:00am 18.6 16.1 4.8 40 6.6 ENE 7 15 4 8 1015.5 1015.4 0.0
03/10:30am 17.3 14.3 4.3 42 6.1 ENE 9 17 5 9 1015.8 1015.7 0.0
03/10:00am 16.8 14.1 5.4 47 5.5 ENE 9 15 5 8 1015.9 1015.8 0.0
03/09:30am 16.4 13.5 6.5 52 4.8 ENE 11 19 6 10 1016.0 1015.9 0.0
03/09:00am 15.8 12.3 7.1 56 4.3 E 15 20 8 11 1016.2 1016.1 0.0
03/08:30am 14.7 11.9 6.8 59 3.8 E 11 15 6 8 1016.3 1016.2 0.0
03/08:00am 13.6 10.8 6.9 64 3.2 E 11 15 6 8 1016.1 1016.0 0.0
03/07:30am 12.2 10.4 7.1 71 2.5 E 6 9 3 5 1016.0 1015.9 0.0
03/07:00am 9.6 7.5 6.0 78 1.7 ESE 6 7 3 4 1015.8 1015.7 0.0
03/06:30am 8.0 5.5 4.9 81 1.4 ESE 7 9 4 5 1015.6 1015.5 0.0
03/06:00am 6.9 4.0 4.6 85 1.0 ESE 9 11 5 6 1015.1 1015.0 0.0
03/05:30am 6.8 3.8 4.3 84 1.1 ESE 9 9 5 5 1015.0 1014.9 0.0
03/05:00am 6.9 3.9 4.2 83 1.2 ESE 9 9 5 5 1014.7 1014.6 0.0
03/04:30am 7.3 4.3 4.3 81 1.3 ESE 9 11 5 6 1014.4 1014.3 0.0
03/04:00am 7.6 4.7 4.7 82 1.3 SE 9 9 5 5 1014.5 1014.4 0.0
03/03:30am 7.8 4.9 4.9 82 1.3 SE 9 11 5 6 1014.4 1014.3 0.0
03/03:00am 8.2 5.4 5.1 81 1.4 SE 9 9 5 5 1014.7 1014.6 0.0
03/02:30am 8.7 6.3 5.1 78 1.6 SE 7 9 4 5 1014.8 1014.7 0.0
03/02:00am 8.8 6.3 5.0 77 1.7 SE 7 9 4 5 1015.2 1015.1 0.0
03/01:30am 9.9 6.4 5.5 74 2.0 SSE 13 15 7 8 1015.2 1015.1 0.0
03/01:00am 9.6 6.4 5.0 73 2.1 SE 11 15 6 8 1015.6 1015.5 0.0
03/12:30am 9.3 5.6 4.7 73 2.0 SE 13 15 7 8 1016.0 1015.9 0.0
03/12:00am 10.2 7.8 5.2 71 2.3 ESE 7 9 4 5 1016.6 1016.5 0.0
 
Date/Time
CDT
Temp
°C
App
Temp
°C
Dew
Point
°C
Rel
Hum
%
Delta-T
°C
Wind Press
QNH
hPa
Press
MSL
hPa
Rain since
9am
mm
Dir  Spd
km/h
Gust
km/h
Spd
kts
Gust
kts
02/11:30pm 10.7 7.6 5.5 70 2.4 SSE 11 15 6 8 1016.5 1016.4 0.0

Other Formats:

Comma delimited format used in spreadsheet applications
http://www.bom.gov.au/fwo/IDS60801/IDS60801.94813.axf

JavaScript Object Notation format (JSON) in row-major order
http://www.bom.gov.au/fwo/IDS60801/IDS60801.94813.json